Time;durP1;ratioP1;P1;durP2;ratioP2;P2;SDS_P1;SDS_P2;PMS_P1;PMS_P2;Temp;Humidity;BMP_temperature;BMP_pressure;BME280_temperature;BME280_humidity;BME280_pressure;Samples;Min_cycle;Max_cycle;Signal;HPM_P1;HPM_P2
2023/10/16 00:02:13;;;;;;;3.15;0.98;;;;;;;;;;5086608;28;20024;-80
2023/10/16 00:04:43;;;;;;;3.78;0.98;;;;;;;;;;5037946;28;20072;-80
2023/10/16 00:07:10;;;;;;;3.17;0.80;;;;;;;;;;5084761;28;20111;-80
2023/10/16 00:09:35;;;;;;;3.72;0.80;;;;;;;;;;5083682;28;20068;-80
2023/10/16 00:12:02;;;;;;;1.88;0.63;;;;;;;;;;5086754;28;20043;-81
2023/10/16 00:14:30;;;;;;;3.45;0.70;;;;;;;;;;5083418;28;20021;-81
2023/10/16 00:16:56;;;;;;;3.38;0.98;;;;;;;;;;5085586;28;20028;-80
2023/10/16 00:19:24;;;;;;;2.42;0.70;;;;;;;;;;5084022;28;20511;-80
2023/10/16 00:21:52;;;;;;;5.82;0.90;;;;;;;;;;5082392;28;20400;-81
2023/10/16 00:24:17;;;;;;;8.68;0.90;;;;;;;;;;5084983;28;20039;-81
2023/10/16 00:26:49;;;;;;;2.15;0.60;;;;;;;;;;5084244;28;20032;-81
2023/10/16 00:29:17;;;;;;;4.97;0.80;;;;;;;;;;5087095;28;20039;-82
2023/10/16 00:31:46;;;;;;;4.28;1.17;;;;;;;;;;5077769;28;20066;-82
2023/10/16 00:34:11;;;;;;;5.93;0.88;;;;;;;;;;5066813;28;20038;-81
2023/10/16 00:36:39;;;;;;;3.47;0.68;;;;;;;;;;5066326;28;20036;-82
2023/10/16 00:39:13;;;;;;;2.97;0.70;;;;;;;;;;5066552;28;20027;-81
2023/10/16 00:41:38;;;;;;;4.50;1.02;;;;;;;;;;5067268;28;20043;-81
2023/10/16 00:44:04;;;;;;;4.15;0.80;;;;;;;;;;5084128;28;20480;-82
2023/10/16 00:46:30;;;;;;;3.97;0.95;;;;;;;;;;5064051;28;20050;-81
2023/10/16 00:48:56;;;;;;;5.20;0.90;;;;;;;;;;5064175;28;20499;-82
2023/10/16 00:51:21;;;;;;;3.03;0.90;;;;;;;;;;5065297;28;20150;-82
2023/10/16 00:53:46;;;;;;;4.53;0.90;;;;;;;;;;5085619;28;20020;-82
2023/10/16 00:56:15;;;;;;;4.57;1.02;;;;;;;;;;5067895;28;20032;-81
2023/10/16 00:58:41;;;;;;;4.35;0.70;;;;;;;;;;5064568;28;20064;-82
2023/10/16 01:01:14;;;;;;;3.58;0.90;;;;;;;;;;5060968;28;20436;-82
2023/10/16 01:03:42;;;;;;;2.38;0.60;;;;;;;;;;5045457;28;20025;-81
2023/10/16 01:06:17;;;;;;;2.10;0.77;;;;;;;;;;5084285;28;20047;-81
2023/10/16 01:08:46;;;;;;;8.10;1.25;;;;;;;;;;5085551;28;20028;-80
2023/10/16 01:11:14;;;;;;;4.90;0.80;;;;;;;;;;5082854;28;20491;-81
2023/10/16 01:13:40;;;;;;;2.88;0.55;;;;;;;;;;5078384;28;20097;-80
2023/10/16 01:16:07;;;;;;;4.38;1.00;;;;;;;;;;5047325;28;20441;-81
2023/10/16 01:18:32;;;;;;;5.20;1.25;;;;;;;;;;5086703;28;20115;-80
2023/10/16 01:21:01;;;;;;;4.07;0.90;;;;;;;;;;5083308;28;20110;-81
2023/10/16 01:23:26;;;;;;;5.40;0.80;;;;;;;;;;5067617;28;20024;-81
2023/10/16 01:25:51;;;;;;;4.30;0.80;;;;;;;;;;5082921;28;20104;-81
2023/10/16 01:28:17;;;;;;;3.85;0.75;;;;;;;;;;5067149;28;20040;-81
2023/10/16 01:30:43;;;;;;;2.28;0.70;;;;;;;;;;5083453;28;20025;-81
2023/10/16 01:33:08;;;;;;;5.60;0.90;;;;;;;;;;5084906;28;20490;-81
2023/10/16 01:35:36;;;;;;;1.98;0.50;;;;;;;;;;5083563;28;20029;-81
2023/10/16 01:38:18;;;;;;;4.95;1.17;;;;;;;;;;5064688;28;20078;-81
2023/10/16 01:41:05;;;;;;;4.03;0.95;;;;;;;;;;5044375;28;20024;-81
2023/10/16 01:43:33;;;;;;;10.70;1.08;;;;;;;;;;5085650;28;20040;-81
2023/10/16 01:46:08;;;;;;;4.88;0.95;;;;;;;;;;5058213;28;20484;-81
2023/10/16 01:48:34;;;;;;;4.05;0.57;;;;;;;;;;5065437;28;20024;-81
2023/10/16 01:51:00;;;;;;;4.15;0.80;;;;;;;;;;5065599;28;20033;-81
2023/10/16 01:53:26;;;;;;;3.60;1.05;;;;;;;;;;5067094;28;20028;-81
2023/10/16 01:55:54;;;;;;;7.63;2.15;;;;;;;;;;5062684;28;20043;-81
2023/10/16 01:58:21;;;;;;;3.05;1.13;;;;;;;;;;5063113;28;20107;-80
2023/10/16 02:00:47;;;;;;;4.38;0.98;;;;;;;;;;5048919;28;20115;-81
2023/10/16 02:03:12;;;;;;;5.88;0.80;;;;;;;;;;5083338;28;20104;-81
2023/10/16 02:05:41;;;;;;;5.13;0.70;;;;;;;;;;5065551;28;20024;-80
2023/10/16 02:08:07;;;;;;;3.30;0.80;;;;;;;;;;5060238;28;20032;-81
2023/10/16 02:10:32;;;;;;;5.32;1.13;;;;;;;;;;5066241;28;20035;-80
2023/10/16 02:12:58;;;;;;;3.10;0.73;;;;;;;;;;5064192;28;20024;-81
2023/10/16 02:15:23;;;;;;;3.20;0.70;;;;;;;;;;5067400;28;20024;-81
2023/10/16 02:17:49;;;;;;;5.57;0.95;;;;;;;;;;5082758;28;20029;-81
2023/10/16 02:20:16;;;;;;;3.08;0.70;;;;;;;;;;5085709;28;20036;-81
2023/10/16 02:22:41;;;;;;;2.90;0.70;;;;;;;;;;5082239;28;20419;-80
2023/10/16 02:25:11;;;;;;;4.30;0.70;;;;;;;;;;5063365;28;20082;-80
2023/10/16 02:27:36;;;;;;;4.15;1.05;;;;;;;;;;5056645;28;20044;-80
2023/10/16 02:30:15;;;;;;;5.03;1.00;;;;;;;;;;5065311;28;20036;-81
2023/10/16 02:32:42;;;;;;;7.10;1.10;;;;;;;;;;5083820;28;20120;-81
2023/10/16 02:35:13;;;;;;;3.88;0.93;;;;;;;;;;5047813;28;20079;-80
2023/10/16 02:37:38;;;;;;;4.50;0.93;;;;;;;;;;5066923;28;20028;-81
2023/10/16 02:40:09;;;;;;;6.25;0.88;;;;;;;;;;5063928;28;20063;-81
2023/10/16 02:42:34;;;;;;;3.80;0.68;;;;;;;;;;5079669;28;20515;-80
2023/10/16 02:44:59;;;;;;;3.38;0.80;;;;;;;;;;5068801;28;20097;-82
2023/10/16 02:47:27;;;;;;;3.13;0.70;;;;;;;;;;5085088;28;20029;-82
2023/10/16 02:49:53;;;;;;;5.93;1.05;;;;;;;;;;5086812;28;20036;-82
2023/10/16 02:52:19;;;;;;;5.50;1.10;;;;;;;;;;5067365;28;20033;-82
2023/10/16 02:54:47;;;;;;;4.18;0.70;;;;;;;;;;5085428;28;20031;-81
2023/10/16 02:57:12;;;;;;;3.78;0.90;;;;;;;;;;5068208;28;20070;-82
2023/10/16 02:59:38;;;;;;;4.45;0.77;;;;;;;;;;5085862;28;20319;-81
2023/10/16 03:02:09;;;;;;;5.43;1.08;;;;;;;;;;5086008;28;20032;-81
2023/10/16 03:04:34;;;;;;;3.80;1.00;;;;;;;;;;5085105;28;20078;-82
2023/10/16 03:06:59;;;;;;;3.53;0.95;;;;;;;;;;5083433;28;20039;-81
2023/10/16 03:09:31;;;;;;;2.65;0.70;;;;;;;;;;5062887;28;20029;-81
2023/10/16 03:12:14;;;;;;;4.15;1.00;;;;;;;;;;5068352;28;20020;-81
2023/10/16 03:14:49;;;;;;;9.98;1.75;;;;;;;;;;5065581;28;20385;-81
2023/10/16 03:17:21;;;;;;;4.43;0.98;;;;;;;;;;5082208;28;20116;-81
2023/10/16 03:19:48;;;;;;;6.20;1.50;;;;;;;;;;5065266;28;20032;-81
2023/10/16 03:22:15;;;;;;;3.70;0.80;;;;;;;;;;5066675;28;20500;-82
2023/10/16 03:24:40;;;;;;;4.95;1.42;;;;;;;;;;5073585;28;20024;-80
2023/10/16 03:27:08;;;;;;;6.05;1.08;;;;;;;;;;5080668;28;20070;-81
2023/10/16 03:29:33;;;;;;;4.22;0.90;;;;;;;;;;5067785;28;20115;-81
2023/10/16 03:31:58;;;;;;;3.20;1.00;;;;;;;;;;5080906;28;20047;-81
2023/10/16 03:34:24;;;;;;;5.43;0.98;;;;;;;;;;5065459;28;20560;-81
2023/10/16 03:36:49;;;;;;;5.13;1.10;;;;;;;;;;5083337;28;20039;-81
2023/10/16 03:39:18;;;;;;;1.83;0.60;;;;;;;;;;5080154;28;20036;-81
2023/10/16 03:41:44;;;;;;;6.25;1.00;;;;;;;;;;5083738;28;20038;-81
2023/10/16 03:44:17;;;;;;;3.72;1.25;;;;;;;;;;5083989;28;20032;-81
2023/10/16 03:46:42;;;;;;;4.30;0.95;;;;;;;;;;5063836;28;20035;-81
2023/10/16 03:49:08;;;;;;;7.22;1.00;;;;;;;;;;5081271;28;20024;-81
2023/10/16 03:51:34;;;;;;;6.10;0.75;;;;;;;;;;5091404;28;20028;-82
2023/10/16 03:53:59;;;;;;;6.53;1.15;;;;;;;;;;5088645;28;20028;-82
2023/10/16 03:56:24;;;;;;;6.07;1.05;;;;;;;;;;5092125;28;20047;-82
2023/10/16 03:58:53;;;;;;;3.38;0.90;;;;;;;;;;5084966;28;20038;-83
2023/10/16 04:01:23;;;;;;;5.25;1.25;;;;;;;;;;5074687;28;20025;-82
2023/10/16 04:03:56;;;;;;;5.35;1.40;;;;;;;;;;5055611;28;20381;-83
2023/10/16 04:06:21;;;;;;;;;;;;;;;;;;5070410;28;20039;-83
2023/10/16 04:08:49;;;;;;;5.82;1.20;;;;;;;;;;5086241;28;19908;-83
2023/10/16 04:11:15;;;;;;;4.18;0.95;;;;;;;;;;5055844;28;20034;-83
2023/10/16 04:13:50;;;;;;;4.38;0.90;;;;;;;;;;5081902;28;20032;-83
2023/10/16 04:16:31;;;;;;;5.63;0.98;;;;;;;;;;5042765;28;20029;-83
2023/10/16 04:19:34;;;;;;;4.57;1.05;;;;;;;;;;5081457;28;20025;-83
2023/10/16 04:21:45;;;;;;;4.15;1.10;;;;;;;;;;5082919;28;20035;-83
2023/10/16 04:24:30;;;;;;;7.95;2.25;;;;;;;;;;5066652;28;21285;-83
2023/10/16 04:29:45;;;;;;;5.57;1.33;;;;;;;;;;5080930;28;20094;-82
2023/10/16 04:32:28;;;;;;;4.40;1.38;;;;;;;;;;5053845;28;20119;-82
2023/10/16 04:34:54;;;;;;;5.70;1.55;;;;;;;;;;5052794;28;20115;-82
2023/10/16 04:37:41;;;;;;;5.22;1.00;;;;;;;;;;5079375;28;20492;-82
2023/10/16 04:48:06;;;;;;;4.18;1.38;;;;;;;;;;5088412;28;20052;-83
2023/10/16 05:06:14;;;;;;;11.48;4.90;;;;;;;;;;5091927;28;20029;-81
2023/10/16 05:08:59;;;;;;;9.10;2.55;;;;;;;;;;5095336;28;20052;-80
2023/10/16 05:19:44;;;;;;;5.88;2.28;;;;;;;;;;5097406;28;20052;-80
2023/10/16 06:14:09;;;;;;;6.85;1.60;;;;;;;;;;5053620;28;20836;-80
2023/10/16 06:14:11;;;;;;;6.97;1.85;;;;;;;;;;5083053;28;20044;-80
2023/10/16 06:16:38;;;;;;;6.90;2.05;;;;;;;;;;5068987;28;20024;-80
2023/10/16 06:19:07;;;;;;;8.88;1.77;;;;;;;;;;5084830;28;20089;-80
2023/10/16 06:21:33;;;;;;;7.25;2.45;;;;;;;;;;5088761;28;20096;-81
2023/10/16 06:23:59;;;;;;;5.68;1.80;;;;;;;;;;5084274;28;20475;-80
2023/10/16 06:26:27;;;;;;;4.40;1.70;;;;;;;;;;5082531;28;20166;-80
2023/10/16 06:28:52;;;;;;;6.53;1.98;;;;;;;;;;5083057;28;20036;-80
2023/10/16 06:31:24;;;;;;;6.85;1.95;;;;;;;;;;5081645;28;20043;-79
2023/10/16 06:33:53;;;;;;;7.30;1.98;;;;;;;;;;5061374;28;20107;-80
2023/10/16 06:36:20;;;;;;;5.90;1.90;;;;;;;;;;5083634;28;20036;-80
2023/10/16 06:38:45;;;;;;;6.38;1.60;;;;;;;;;;5065969;28;20374;-80
2023/10/16 06:41:15;;;;;;;5.28;1.60;;;;;;;;;;5066433;28;20047;-80
2023/10/16 06:43:40;;;;;;;6.60;1.50;;;;;;;;;;5052550;28;20077;-80
2023/10/16 06:46:09;;;;;;;7.38;1.77;;;;;;;;;;5088698;28;20032;-80
2023/10/16 06:48:37;;;;;;;4.82;1.70;;;;;;;;;;5067166;28;20044;-80
2023/10/16 06:51:14;;;;;;;7.72;1.98;;;;;;;;;;5067777;28;20063;-80
2023/10/16 06:53:39;;;;;;;6.00;1.70;;;;;;;;;;5063269;28;20020;-80
2023/10/16 06:56:04;;;;;;;8.32;3.45;;;;;;;;;;5080238;28;20548;-80
2023/10/16 06:58:31;;;;;;;5.00;1.73;;;;;;;;;;5087200;28;20035;-80
2023/10/16 07:00:57;;;;;;;5.38;1.67;;;;;;;;;;5072117;28;20404;-80
2023/10/16 07:03:22;;;;;;;7.20;1.92;;;;;;;;;;5078928;28;20032;-81
2023/10/16 07:05:48;;;;;;;5.30;1.50;;;;;;;;;;5054019;28;20097;-81
2023/10/16 07:08:17;;;;;;;6.38;1.70;;;;;;;;;;5068934;28;20029;-80
2023/10/16 07:10:48;;;;;;;5.38;1.60;;;;;;;;;;5085963;28;20400;-80
2023/10/16 07:13:14;;;;;;;5.13;1.80;;;;;;;;;;5098705;28;20036;-81
2023/10/16 07:15:39;;;;;;;7.60;1.67;;;;;;;;;;5102729;28;20040;-81
2023/10/16 07:18:04;;;;;;;7.50;1.20;;;;;;;;;;5093185;28;20039;-80
2023/10/16 07:20:35;;;;;;;4.75;1.65;;;;;;;;;;5084468;28;20093;-80
2023/10/16 07:23:00;;;;;;;6.47;1.90;;;;;;;;;;5059001;28;20607;-80
2023/10/16 07:25:37;;;;;;;3.67;1.30;;;;;;;;;;5068014;28;20036;-80
2023/10/16 07:28:08;;;;;;;6.32;1.75;;;;;;;;;;5087219;28;20111;-80
2023/10/16 07:30:34;;;;;;;4.95;1.75;;;;;;;;;;5088130;28;20032;-80
2023/10/16 07:32:59;;;;;;;5.65;1.75;;;;;;;;;;5087648;28;20082;-80
2023/10/16 07:35:24;;;;;;;8.07;1.83;;;;;;;;;;5088620;28;20028;-80
2023/10/16 07:37:53;;;;;;;9.45;1.77;;;;;;;;;;5056903;28;20330;-80
2023/10/16 07:40:21;;;;;;;5.03;1.60;;;;;;;;;;5071919;28;20116;-80
2023/10/16 07:42:47;;;;;;;6.60;1.80;;;;;;;;;;5090679;28;20028;-79
2023/10/16 07:45:12;;;;;;;7.88;1.95;;;;;;;;;;5070396;28;20397;-80
2023/10/16 07:47:37;;;;;;;5.40;1.70;;;;;;;;;;5096188;28;20122;-80
2023/10/16 07:50:04;;;;;;;4.18;1.30;;;;;;;;;;5052268;28;20029;-80
2023/10/16 07:52:30;;;;;;;5.05;2.00;;;;;;;;;;5085410;28;20029;-79
2023/10/16 07:54:55;;;;;;;2.85;1.50;;;;;;;;;;5086685;28;20377;-79
2023/10/16 07:57:23;;;;;;;6.18;1.70;;;;;;;;;;5087120;28;20031;-80
2023/10/16 07:59:54;;;;;;;7.43;1.50;;;;;;;;;;5070469;28;20028;-80
2023/10/16 08:02:19;;;;;;;4.05;1.70;;;;;;;;;;5087387;28;20033;-80
2023/10/16 08:04:44;;;;;;;6.93;2.30;;;;;;;;;;5068960;28;20020;-81
2023/10/16 08:07:18;;;;;;;6.32;2.03;;;;;;;;;;5083591;28;20028;-81
2023/10/16 08:12:18;;;;;;;5.18;1.60;;;;;;;;;;5065334;28;20123;-81
2023/10/16 08:14:44;;;;;;;5.90;1.70;;;;;;;;;;5078194;28;20038;-81
2023/10/16 08:17:16;;;;;;;5.25;1.77;;;;;;;;;;5081007;28;20020;-81
2023/10/16 08:19:41;;;;;;;5.78;1.73;;;;;;;;;;5080481;28;20047;-81
2023/10/16 08:22:07;;;;;;;4.90;1.33;;;;;;;;;;5086104;28;20480;-81
2023/10/16 08:24:32;;;;;;;9.02;2.25;;;;;;;;;;5076140;28;20032;-81
2023/10/16 08:27:11;;;;;;;6.70;1.60;;;;;;;;;;5084121;28;20060;-81
2023/10/16 08:29:50;;;;;;;5.95;1.30;;;;;;;;;;5053783;28;20025;-81
2023/10/16 08:35:01;;;;;;;6.13;1.90;;;;;;;;;;5078311;28;20508;-81
2023/10/16 08:37:26;;;;;;;4.38;1.60;;;;;;;;;;5084984;28;20036;-82
2023/10/16 08:39:51;;;;;;;4.35;1.98;;;;;;;;;;5081460;28;20032;-81
2023/10/16 08:42:19;;;;;;;5.90;2.20;;;;;;;;;;5066902;28;20027;-82
2023/10/16 08:44:45;;;;;;;6.75;1.50;;;;;;;;;;5084402;28;20032;-82
2023/10/16 08:47:15;;;;;;;7.95;1.90;;;;;;;;;;5067528;28;20028;-82
2023/10/16 08:49:51;;;;;;;6.10;2.00;;;;;;;;;;5083989;28;20067;-82
2023/10/16 08:52:20;;;;;;;6.25;1.40;;;;;;;;;;5067415;28;20074;-82
2023/10/16 08:55:00;;;;;;;6.05;1.52;;;;;;;;;;5059525;28;20036;-81
2023/10/16 08:57:25;;;;;;;3.33;1.50;;;;;;;;;;5064830;28;20516;-82
2023/10/16 08:59:51;;;;;;;6.20;1.70;;;;;;;;;;5082941;28;20049;-82
2023/10/16 09:02:20;;;;;;;5.30;1.80;;;;;;;;;;5083739;28;20025;-82
2023/10/16 09:04:48;;;;;;;4.70;1.67;;;;;;;;;;5080963;28;20381;-82
2023/10/16 09:07:19;;;;;;;7.20;1.52;;;;;;;;;;5083712;28;20074;-82
2023/10/16 09:09:48;;;;;;;7.03;1.70;;;;;;;;;;5052877;28;20580;-82
2023/10/16 09:12:13;;;;;;;5.88;1.55;;;;;;;;;;5084403;28;20024;-82
2023/10/16 09:14:40;;;;;;;6.70;1.75;;;;;;;;;;5081886;28;20059;-81
2023/10/16 09:17:06;;;;;;;7.43;1.58;;;;;;;;;;5083979;28;20034;-82
2023/10/16 09:19:35;;;;;;;4.50;1.67;;;;;;;;;;5062674;28;20024;-82
2023/10/16 09:22:04;;;;;;;5.75;1.40;;;;;;;;;;5062398;28;20616;-82
2023/10/16 09:24:29;;;;;;;4.68;1.60;;;;;;;;;;5083131;28;20037;-81
2023/10/16 09:26:55;;;;;;;5.65;1.52;;;;;;;;;;5082589;28;20024;-82
2023/10/16 09:29:25;;;;;;;5.13;1.27;;;;;;;;;;5066150;28;20370;-81
2023/10/16 09:31:51;;;;;;;7.07;1.40;;;;;;;;;;5084415;28;20511;-81
2023/10/16 09:34:19;;;;;;;4.82;1.50;;;;;;;;;;5059895;28;20032;-82
2023/10/16 09:36:48;;;;;;;10.13;2.00;;;;;;;;;;5081076;28;20487;-82
2023/10/16 09:39:17;;;;;;;6.07;2.08;;;;;;;;;;5077286;28;20116;-82
2023/10/16 09:41:43;;;;;;;4.22;1.42;;;;;;;;;;5049041;28;20122;-81
2023/10/16 09:44:23;;;;;;;5.90;1.40;;;;;;;;;;5082094;28;20123;-81
2023/10/16 09:46:52;;;;;;;3.88;1.75;;;;;;;;;;5065382;28;20028;-81
2023/10/16 09:49:21;;;;;;;5.07;1.60;;;;;;;;;;5061157;28;20036;-81
2023/10/16 09:51:47;;;;;;;3.35;1.25;;;;;;;;;;5065782;28;20035;-82
2023/10/16 09:54:13;;;;;;;4.95;1.67;;;;;;;;;;5062778;28;20223;-82
2023/10/16 09:56:39;;;;;;;4.43;1.23;;;;;;;;;;5061989;28;20024;-80
2023/10/16 09:59:09;;;;;;;3.50;1.33;;;;;;;;;;5081589;28;20082;-81
2023/10/16 10:01:37;;;;;;;5.97;1.63;;;;;;;;;;5081678;28;20040;-82
2023/10/16 10:04:03;;;;;;;5.47;2.28;;;;;;;;;;5065670;28;20031;-81
2023/10/16 10:06:34;;;;;;;4.05;1.50;;;;;;;;;;5082283;28;20071;-81
2023/10/16 10:11:44;;;;;;;4.97;1.42;;;;;;;;;;5084797;28;20071;-81
2023/10/16 10:16:50;;;;;;;6.50;1.40;;;;;;;;;;5077342;28;20032;-81
2023/10/16 10:19:24;;;;;;;7.35;1.25;;;;;;;;;;5080966;28;20119;-78
2023/10/16 10:21:53;;;;;;;5.88;1.52;;;;;;;;;;5048256;28;20056;-81
2023/10/16 10:24:19;;;;;;;4.57;1.48;;;;;;;;;;5064741;28;20040;-81
2023/10/16 10:26:48;;;;;;;8.15;1.55;;;;;;;;;;5054822;28;20074;-81
2023/10/16 10:29:16;;;;;;;5.18;1.20;;;;;;;;;;5080856;28;20040;-81
2023/10/16 10:31:42;;;;;;;7.40;1.50;;;;;;;;;;5083414;28;20040;-81
2023/10/16 10:34:18;;;;;;;7.15;1.48;;;;;;;;;;5080988;28;20377;-81
2023/10/16 10:36:44;;;;;;;6.53;1.50;;;;;;;;;;5070911;28;20054;-81
2023/10/16 10:39:21;;;;;;;10.27;2.00;;;;;;;;;;5077766;28;20021;-80
2023/10/16 10:41:51;;;;;;;4.00;1.30;;;;;;;;;;5078217;28;20059;-81
2023/10/16 10:44:18;;;;;;;7.55;1.58;;;;;;;;;;5074822;28;20412;-81
2023/10/16 10:46:49;;;;;;;5.97;1.23;;;;;;;;;;5072099;28;20039;-81
2023/10/16 10:49:17;;;;;;;4.25;1.52;;;;;;;;;;5075146;28;20054;-81
2023/10/16 10:51:45;;;;;;;5.32;1.20;;;;;;;;;;5074045;28;20032;-81
2023/10/16 10:54:13;;;;;;;5.90;1.52;;;;;;;;;;5064393;28;20040;-81
2023/10/16 10:56:42;;;;;;;8.10;1.42;;;;;;;;;;5076200;28;20075;-82
2023/10/16 10:59:10;;;;;;;7.78;1.45;;;;;;;;;;5060170;28;20142;-81
2023/10/16 11:02:21;;;;;;;10.70;1.92;;;;;;;;;;5079353;28;20027;-81
2023/10/16 11:04:46;;;;;;;6.53;1.35;;;;;;;;;;5078644;28;20036;-82
2023/10/16 11:07:12;;;;;;;4.97;1.67;;;;;;;;;;5082716;28;20492;-81
2023/10/16 11:09:38;;;;;;;4.25;1.33;;;;;;;;;;5078531;28;20024;-82
2023/10/16 11:12:07;;;;;;;3.30;1.10;;;;;;;;;;5081985;28;20042;-82
2023/10/16 11:14:34;;;;;;;6.63;1.20;;;;;;;;;;5079522;28;20032;-82
2023/10/16 11:17:00;;;;;;;4.55;1.48;;;;;;;;;;5081138;28;20116;-81
2023/10/16 11:19:29;;;;;;;3.88;1.02;;;;;;;;;;5078797;28;20504;-82
2023/10/16 11:21:56;;;;;;;2.95;1.00;;;;;;;;;;5063118;28;20465;-82
2023/10/16 11:24:24;;;;;;;5.32;1.10;;;;;;;;;;5077837;28;20111;-82
2023/10/16 11:26:50;;;;;;;5.97;1.33;;;;;;;;;;5055359;28;20032;-81
2023/10/16 11:29:19;;;;;;;6.20;1.25;;;;;;;;;;5064254;28;20028;-81
2023/10/16 11:31:44;;;;;;;7.25;1.40;;;;;;;;;;5078410;28;20038;-82
2023/10/16 11:34:12;;;;;;;3.50;0.77;;;;;;;;;;5062108;28;20032;-82
2023/10/16 11:36:39;;;;;;;2.70;0.77;;;;;;;;;;5059410;28;20032;-82
2023/10/16 11:39:06;;;;;;;3.53;0.70;;;;;;;;;;5078016;28;20040;-81
2023/10/16 11:41:32;;;;;;;2.60;0.60;;;;;;;;;;5078743;28;20497;-81
2023/10/16 11:44:01;;;;;;;2.58;0.68;;;;;;;;;;5080782;28;20036;-82
2023/10/16 11:46:30;;;;;;;2.58;0.50;;;;;;;;;;5063635;28;20033;-81
2023/10/16 11:49:17;;;;;;;2.97;0.80;;;;;;;;;;5079845;28;20132;-82
2023/10/16 11:51:45;;;;;;;5.50;0.63;;;;;;;;;;5075332;28;20072;-81
2023/10/16 11:54:10;;;;;;;4.38;0.75;;;;;;;;;;5080022;28;20032;-82
2023/10/16 11:56:36;;;;;;;4.47;1.10;;;;;;;;;;5046900;28;20028;-81
2023/10/16 11:59:03;;;;;;;1.58;0.40;;;;;;;;;;5080123;28;20036;-82
2023/10/16 12:01:28;;;;;;;3.63;0.60;;;;;;;;;;5083426;28;20039;-82
2023/10/16 12:03:55;;;;;;;3.28;1.10;;;;;;;;;;5079671;28;20564;-82
2023/10/16 12:06:20;;;;;;;2.90;0.77;;;;;;;;;;5082485;28;20035;-82
2023/10/16 12:08:45;;;;;;;5.72;2.10;;;;;;;;;;5060999;28;20213;-82
2023/10/16 12:11:14;;;;;;;2.80;1.10;;;;;;;;;;5084053;28;20092;-81
2023/10/16 12:13:39;;;;;;;3.15;0.68;;;;;;;;;;5062822;28;20025;-82
2023/10/16 12:16:05;;;;;;;2.67;0.73;;;;;;;;;;5083767;28;20024;-82
2023/10/16 12:18:31;;;;;;;2.42;0.90;;;;;;;;;;5065080;28;20515;-82
2023/10/16 12:21:04;;;;;;;3.75;1.00;;;;;;;;;;5067161;28;20527;-82
2023/10/16 12:23:32;;;;;;;2.65;0.80;;;;;;;;;;5084547;28;20032;-82
2023/10/16 12:25:59;;;;;;;4.25;0.80;;;;;;;;;;5066266;28;20507;-82
2023/10/16 12:28:25;;;;;;;3.90;1.23;;;;;;;;;;5061478;28;20047;-82
2023/10/16 12:30:51;;;;;;;3.05;0.73;;;;;;;;;;5064764;28;20021;-82
2023/10/16 12:33:16;;;;;;;2.25;0.90;;;;;;;;;;5065246;28;20684;-82
2023/10/16 12:35:42;;;;;;;2.63;0.67;;;;;;;;;;5084815;28;20093;-82
2023/10/16 12:41:36;;;;;;;4.00;0.85;;;;;;;;;;5074729;28;20122;-81
2023/10/16 12:44:01;;;;;;;2.05;0.50;;;;;;;;;;5062044;28;20033;-82
2023/10/16 12:46:27;;;;;;;2.13;0.88;;;;;;;;;;5064300;28;20171;-82
2023/10/16 12:48:53;;;;;;;4.72;0.90;;;;;;;;;;5085511;28;20074;-81
2023/10/16 12:51:18;;;;;;;2.08;0.70;;;;;;;;;;5062926;28;20694;-82
2023/10/16 12:53:45;;;;;;;2.85;0.63;;;;;;;;;;5078820;28;20097;-82
2023/10/16 12:56:12;;;;;;;2.67;0.52;;;;;;;;;;5061307;28;20074;-81
2023/10/16 12:58:37;;;;;;;2.13;0.45;;;;;;;;;;5084461;28;20040;-82
2023/10/16 13:01:05;;;;;;;2.50;1.00;;;;;;;;;;5074652;28;20117;-81
2023/10/16 13:03:33;;;;;;;4.60;0.70;;;;;;;;;;5082098;28;20089;-81
2023/10/16 13:05:58;;;;;;;3.78;0.80;;;;;;;;;;5083494;28;20047;-82
2023/10/16 13:08:23;;;;;;;4.60;0.73;;;;;;;;;;5077735;28;20037;-82
2023/10/16 13:10:50;;;;;;;4.97;1.00;;;;;;;;;;5064399;28;20106;-81
2023/10/16 13:13:20;;;;;;;2.67;0.73;;;;;;;;;;5063917;28;20327;-82
2023/10/16 13:15:51;;;;;;;1.70;0.47;;;;;;;;;;5062764;28;20029;-82
2023/10/16 13:18:17;;;;;;;4.53;0.70;;;;;;;;;;5063406;28;20119;-82
2023/10/16 13:20:43;;;;;;;4.80;1.15;;;;;;;;;;5084153;28;20081;-82
2023/10/16 13:23:08;;;;;;;4.07;0.70;;;;;;;;;;5079384;28;20120;-81
2023/10/16 13:25:34;;;;;;;2.20;0.75;;;;;;;;;;5069315;28;20285;-82
2023/10/16 13:28:00;;;;;;;6.65;1.02;;;;;;;;;;5066418;28;20056;-81
2023/10/16 13:30:26;;;;;;;5.28;1.00;;;;;;;;;;5080443;28;20527;-82
2023/10/16 13:32:51;;;;;;;4.15;0.80;;;;;;;;;;5061756;28;20071;-80
2023/10/16 13:35:17;;;;;;;2.33;0.95;;;;;;;;;;5081453;28;20016;-82
2023/10/16 13:37:43;;;;;;;4.43;1.23;;;;;;;;;;5085650;28;20496;-81
2023/10/16 13:40:21;;;;;;;3.42;0.90;;;;;;;;;;5061863;28;20123;-82
2023/10/16 13:42:49;;;;;;;2.28;0.80;;;;;;;;;;5086609;28;20032;-82
2023/10/16 13:45:15;;;;;;;4.43;1.00;;;;;;;;;;5063398;28;20039;-82
2023/10/16 13:47:43;;;;;;;3.05;1.08;;;;;;;;;;5065667;28;20038;-82
2023/10/16 13:50:24;;;;;;;2.17;0.70;;;;;;;;;;5080680;28;20039;-82
2023/10/16 13:52:50;;;;;;;6.50;1.30;;;;;;;;;;5070667;28;20078;-83
2023/10/16 13:55:19;;;;;;;5.10;1.45;;;;;;;;;;5043284;28;20028;-82
2023/10/16 13:57:47;;;;;;;3.83;1.20;;;;;;;;;;5072795;28;20029;-82
2023/10/16 14:02:57;;;;;;;3.20;0.98;;;;;;;;;;5076392;28;20035;-82
2023/10/16 14:05:23;;;;;;;1.50;0.57;;;;;;;;;;5081180;28;20029;-82
2023/10/16 14:07:48;;;;;;;2.58;0.70;;;;;;;;;;5080005;28;20107;-82
2023/10/16 14:10:13;;;;;;;2.97;1.10;;;;;;;;;;5060089;28;20482;-82
2023/10/16 14:12:39;;;;;;;2.15;0.70;;;;;;;;;;5075718;28;20027;-82
2023/10/16 14:15:05;;;;;;;2.58;0.98;;;;;;;;;;5080548;28;20028;-82
2023/10/16 14:17:37;;;;;;;5.07;0.90;;;;;;;;;;5060490;28;20807;-82
2023/10/16 14:20:11;;;;;;;2.72;1.20;;;;;;;;;;5080516;28;20083;-82
2023/10/16 14:22:42;;;;;;;3.05;0.60;;;;;;;;;;5079884;28;20028;-82
2023/10/16 14:25:11;;;;;;;3.72;1.00;;;;;;;;;;5077204;28;20056;-82
2023/10/16 14:27:39;;;;;;;2.63;1.20;;;;;;;;;;5082829;28;20591;-83
2023/10/16 14:30:05;;;;;;;3.90;0.88;;;;;;;;;;5081666;28;20043;-82
2023/10/16 14:32:30;;;;;;;3.08;1.20;;;;;;;;;;5062909;28;20028;-82
2023/10/16 14:34:56;;;;;;;5.22;1.40;;;;;;;;;;5059758;28;20032;-82
2023/10/16 14:37:21;;;;;;;2.88;1.00;;;;;;;;;;5057484;28;20115;-82
2023/10/16 14:39:51;;;;;;;3.40;1.65;;;;;;;;;;5063245;28;20069;-82
2023/10/16 14:42:17;;;;;;;2.33;0.70;;;;;;;;;;5079719;28;20074;-82
2023/10/16 14:44:45;;;;;;;3.63;1.25;;;;;;;;;;5075875;28;20044;-82
2023/10/16 14:47:10;;;;;;;1.73;0.80;;;;;;;;;;5058662;28;20023;-82
2023/10/16 14:49:35;;;;;;;5.28;1.35;;;;;;;;;;5058896;28;20476;-82
2023/10/16 14:52:01;;;;;;;3.70;1.10;;;;;;;;;;5065208;28;20074;-82
2023/10/16 14:54:26;;;;;;;3.90;1.27;;;;;;;;;;5048081;28;20028;-82
2023/10/16 14:56:52;;;;;;;4.05;1.25;;;;;;;;;;5074471;28;20058;-82
2023/10/16 14:59:33;;;;;;;3.72;1.00;;;;;;;;;;5061524;28;20055;-82
2023/10/16 15:02:00;;;;;;;2.67;0.93;;;;;;;;;;5060176;28;20080;-82
2023/10/16 15:04:25;;;;;;;4.50;1.00;;;;;;;;;;5043605;28;20028;-85
2023/10/16 15:06:50;;;;;;;4.03;1.20;;;;;;;;;;5044407;28;20583;-80
2023/10/16 15:09:16;;;;;;;3.17;1.05;;;;;;;;;;5070854;28;20016;-82
2023/10/16 15:11:43;;;;;;;4.57;0.98;;;;;;;;;;5058170;28;20060;-82
2023/10/16 15:14:08;;;;;;;5.10;1.75;;;;;;;;;;5058636;28;20024;-82
2023/10/16 15:16:33;;;;;;;3.67;1.00;;;;;;;;;;5079358;28;20036;-83
2023/10/16 15:19:00;;;;;;;5.90;1.40;;;;;;;;;;5082761;28;20025;-82
2023/10/16 15:21:25;;;;;;;1.70;0.70;;;;;;;;;;5078002;28;20570;-81
2023/10/16 15:23:50;;;;;;;3.55;0.90;;;;;;;;;;5057951;28;20032;-81
2023/10/16 15:26:16;;;;;;;3.30;0.90;;;;;;;;;;5080465;28;20027;-82
2023/10/16 15:28:41;;;;;;;3.03;1.27;;;;;;;;;;5063852;28;20039;-81
2023/10/16 15:31:06;;;;;;;5.60;2.25;;;;;;;;;;5060614;28;20067;-82
2023/10/16 15:33:32;;;;;;;4.30;1.80;;;;;;;;;;5069171;28;20037;-81
2023/10/16 15:35:59;;;;;;;5.47;1.83;;;;;;;;;;5046696;28;20120;-81
2023/10/16 15:38:25;;;;;;;4.45;1.55;;;;;;;;;;5079067;28;20021;-81
2023/10/16 15:40:55;;;;;;;8.82;2.55;;;;;;;;;;5082069;28;20384;-81
2023/10/16 15:43:20;;;;;;;7.53;1.98;;;;;;;;;;5078193;28;20098;-81
2023/10/16 15:45:46;;;;;;;4.95;1.40;;;;;;;;;;5073257;28;20119;-81
2023/10/16 15:48:12;;;;;;;4.70;1.55;;;;;;;;;;5073586;28;20040;-81
2023/10/16 15:50:40;;;;;;;3.65;1.25;;;;;;;;;;5077161;28;20028;-81
2023/10/16 15:53:06;;;;;;;5.85;1.30;;;;;;;;;;5073457;28;20056;-81
2023/10/16 15:55:31;;;;;;;3.28;1.00;;;;;;;;;;5074641;28;20032;-82
2023/10/16 15:57:57;;;;;;;2.75;0.90;;;;;;;;;;5063133;28;20116;-83
2023/10/16 16:00:30;;;;;;;4.80;1.20;;;;;;;;;;5085815;28;20039;-82
2023/10/16 16:02:55;;;;;;;5.00;1.60;;;;;;;;;;5082311;28;20500;-82
2023/10/16 16:05:22;;;;;;;4.13;1.27;;;;;;;;;;5082469;28;20087;-82
2023/10/16 16:07:49;;;;;;;6.28;1.13;;;;;;;;;;5075981;28;20086;-82
2023/10/16 16:10:15;;;;;;;4.30;0.80;;;;;;;;;;5080443;28;20199;-82
2023/10/16 16:12:41;;;;;;;4.75;1.13;;;;;;;;;;5067223;28;20027;-83
2023/10/16 16:15:07;;;;;;;3.08;0.77;;;;;;;;;;5064211;28;20463;-82
2023/10/16 16:17:32;;;;;;;4.45;0.82;;;;;;;;;;5083194;28;20020;-82
2023/10/16 16:19:58;;;;;;;3.47;0.85;;;;;;;;;;5067604;28;20024;-82
2023/10/16 16:22:23;;;;;;;3.53;1.15;;;;;;;;;;5075047;28;20024;-82
2023/10/16 16:24:48;;;;;;;3.15;0.90;;;;;;;;;;5083749;28;20031;-82
2023/10/16 16:27:14;;;;;;;2.90;1.05;;;;;;;;;;5082751;28;20032;-82
2023/10/16 16:29:40;;;;;;;2.63;1.30;;;;;;;;;;5064218;28;20032;-83